createdAt,value
2019-06-20T00:01:23.625Z,25.08
2019-06-20T00:05:45.857Z,25.13
2019-06-20T00:09:32.446Z,25.15
2019-06-20T00:12:17.873Z,25.17
2019-06-20T00:15:25.485Z,25.17
2019-06-20T00:18:22.003Z,25.13
2019-06-20T00:21:24.463Z,25.12
2019-06-20T00:24:18.882Z,25.12
2019-06-20T00:27:27.302Z,25.09
2019-06-20T00:30:40.418Z,25.06
2019-06-20T00:33:52.443Z,24.98
2019-06-20T00:41:08.038Z,24.80
2019-06-20T00:43:56.755Z,24.84
2019-06-20T00:46:40.388Z,24.78
2019-06-20T00:49:45.335Z,24.68
2019-06-20T00:52:31.489Z,24.62
2019-06-20T00:55:14.649Z,24.64
2019-06-20T00:58:03.767Z,24.65
2019-06-20T01:00:40.526Z,24.58
2019-06-20T01:03:12.283Z,24.57
2019-06-20T01:05:48.571Z,24.61
2019-06-20T01:08:24.913Z,24.63
2019-06-20T01:10:56.895Z,24.61
2019-06-20T01:13:37.435Z,24.61
2019-06-20T01:16:17.526Z,24.63
2019-06-20T01:18:53.910Z,24.63
2019-06-20T01:21:30.284Z,24.62
2019-06-20T01:24:00.813Z,24.60
2019-06-20T01:26:39.605Z,24.57
2019-06-20T01:29:19.349Z,24.56
2019-06-20T01:32:24.375Z,24.52
2019-06-20T01:35:05.586Z,24.42
2019-06-20T01:37:39.869Z,24.33
2019-06-20T01:40:21.658Z,24.31
2019-06-20T01:43:00.208Z,24.28
2019-06-20T01:45:43.508Z,24.21
2019-06-20T01:48:16.304Z,24.14
2019-06-20T01:50:57.599Z,24.04
2019-06-20T01:53:34.326Z,23.96
2019-06-20T01:56:03.915Z,23.85
2019-06-20T01:59:30.397Z,23.83
2019-06-20T02:02:07.933Z,23.82
2019-06-20T02:04:46.525Z,23.87
2019-06-20T02:07:22.427Z,23.89
2019-06-20T02:10:00.545Z,23.88
2019-06-20T02:12:37.084Z,23.91
2019-06-20T02:15:15.861Z,23.92
2019-06-20T02:17:46.486Z,23.93
2019-06-20T02:20:31.482Z,23.95
2019-06-20T02:23:01.839Z,23.84
2019-06-20T02:25:39.914Z,23.72
2019-06-20T02:28:10.541Z,23.61
2019-06-20T02:30:41.261Z,23.52
2019-06-20T02:33:14.043Z,23.41
2019-06-20T02:35:44.485Z,23.29
2019-06-20T02:38:15.919Z,23.14
2019-06-20T02:40:46.230Z,23.04
2019-06-20T02:43:16.537Z,22.92
2019-06-20T02:45:46.855Z,22.87
2019-06-20T02:48:20.151Z,22.83
2019-06-20T02:50:53.602Z,22.81
2019-06-20T02:53:26.072Z,22.88
2019-06-20T02:55:56.471Z,22.93
2019-06-20T02:58:29.697Z,22.99
2019-06-20T03:01:00.919Z,23.00
2019-06-20T03:03:32.147Z,23.00
2019-06-20T03:06:02.709Z,23.03
2019-06-20T03:08:34.189Z,23.08
2019-06-20T03:11:04.873Z,23.14
2019-06-20T03:13:35.237Z,23.25
2019-06-20T03:16:05.665Z,23.34
2019-06-20T03:18:36.053Z,23.38
2019-06-20T03:21:06.728Z,23.45
2019-06-20T03:23:37.069Z,23.48
2019-06-20T03:26:07.408Z,23.52
2019-06-20T03:28:38.048Z,23.54
2019-06-20T03:31:08.689Z,23.52
2019-06-20T03:33:39.359Z,23.47
2019-06-20T03:36:09.732Z,23.45
2019-06-20T03:38:42.323Z,23.40
2019-06-20T03:41:12.698Z,23.38
2019-06-20T03:43:45.035Z,23.41
2019-06-20T03:46:16.491Z,23.44
2019-06-20T03:48:46.799Z,23.43
2019-06-20T03:51:17.082Z,23.52
2019-06-20T03:53:50.479Z,23.64
2019-06-20T03:56:21.087Z,23.87
2019-06-20T03:58:53.347Z,24.07
2019-06-20T04:01:31.492Z,24.63
2019-06-20T04:04:01.876Z,26.05
2019-06-20T04:06:32.781Z,27.43
2019-06-20T04:09:04.679Z,28.91
2019-06-20T04:11:37.159Z,28.96
2019-06-20T04:14:07.768Z,29.14
2019-06-20T04:16:38.399Z,28.74
2019-06-20T04:19:08.866Z,27.90
2019-06-20T04:21:39.622Z,26.43
2019-06-20T04:24:10.428Z,25.33
2019-06-20T04:26:43.573Z,24.70
2019-06-20T04:29:15.724Z,24.39
2019-06-20T04:31:46.031Z,24.22
2019-06-20T04:34:17.769Z,24.09
2019-06-20T04:36:48.401Z,24.17
2019-06-20T04:39:19.893Z,24.26
2019-06-20T04:41:50.330Z,24.41
2019-06-20T04:44:21.936Z,25.29
2019-06-20T04:47:00.972Z,26.15
2019-06-20T04:49:31.260Z,26.28
2019-06-20T04:52:01.568Z,25.90
2019-06-20T04:54:33.019Z,25.62
2019-06-20T04:57:03.325Z,25.44
2019-06-20T04:59:33.644Z,25.21
2019-06-20T05:02:05.405Z,24.97
2019-06-20T05:04:35.944Z,24.85
2019-06-20T05:07:16.540Z,24.72
2019-06-20T05:09:48.964Z,24.57
2019-06-20T05:12:22.398Z,24.42
2019-06-20T05:14:52.895Z,24.22
2019-06-20T05:17:26.173Z,24.08
2019-06-20T05:20:01.656Z,23.99
2019-06-20T05:22:51.315Z,23.96
2019-06-20T05:25:27.515Z,23.92
2019-06-20T05:27:58.473Z,23.85
2019-06-20T05:30:32.134Z,23.79
2019-06-20T05:33:02.812Z,23.82
2019-06-20T05:35:38.637Z,23.78
2019-06-20T05:38:13.346Z,23.73
2019-06-20T05:40:47.054Z,23.63
2019-06-20T05:43:18.799Z,23.58
2019-06-20T05:46:08.265Z,23.59
2019-06-20T05:48:56.155Z,23.46
2019-06-20T05:51:24.526Z,23.46
2019-06-20T05:54:30.213Z,23.44
2019-06-20T05:57:14.765Z,23.33
2019-06-20T06:00:30.477Z,23.40
2019-06-20T06:03:06.975Z,23.51
2019-06-20T06:06:22.409Z,23.73
2019-06-20T06:09:24.748Z,23.93
2019-06-20T06:12:14.228Z,24.32
2019-06-20T06:15:10.081Z,24.93
2019-06-20T06:17:42.344Z,25.94
2019-06-20T06:20:20.018Z,26.95
2019-06-20T06:22:50.371Z,26.79
2019-06-20T06:25:20.996Z,26.70
2019-06-20T06:27:52.519Z,26.96
2019-06-20T06:30:25.824Z,26.87
2019-06-20T06:32:56.522Z,26.62
2019-06-20T06:35:27.473Z,26.35
2019-06-20T06:38:01.644Z,26.41
2019-06-20T06:40:32.011Z,26.44
2019-06-20T06:43:02.431Z,26.58
2019-06-20T06:45:33.430Z,26.62
2019-06-20T06:48:03.812Z,26.71
2019-06-20T06:50:34.279Z,26.53
2019-06-20T06:53:04.848Z,26.30
2019-06-20T06:55:39.042Z,26.15
2019-06-20T06:58:10.766Z,26.11
2019-06-20T07:01:10.719Z,26.09
2019-06-20T07:07:12.883Z,25.67
2019-06-20T07:10:09.093Z,25.54
2019-06-20T07:13:21.237Z,25.72
2019-06-20T07:16:18.725Z,25.98
2019-06-20T07:18:55.382Z,26.04
2019-06-20T07:21:33.133Z,26.05
2019-06-20T07:24:05.155Z,26.23
2019-06-20T07:26:38.899Z,26.32
2019-06-20T07:29:09.802Z,26.43
2019-06-20T07:31:40.696Z,26.63
2019-06-20T07:34:11.457Z,26.64
2019-06-20T07:36:41.784Z,26.65
2019-06-20T07:39:12.425Z,26.66
2019-06-20T07:41:43.652Z,26.92
2019-06-20T07:44:14.154Z,27.17
2019-06-20T07:46:53.647Z,27.21
2019-06-20T07:50:00.540Z,27.25
2019-06-20T07:52:34.143Z,27.07
2019-06-20T07:55:04.775Z,27.07
2019-06-20T07:57:35.378Z,27.03
2019-06-20T08:00:11.136Z,27.11
2019-06-20T08:02:42.009Z,26.96
2019-06-20T08:05:18.337Z,26.97
2019-06-20T08:07:54.230Z,26.94
2019-06-20T08:10:34.111Z,27.04
2019-06-20T08:13:32.595Z,27.38
2019-06-20T08:16:21.297Z,27.39
2019-06-20T08:19:00.341Z,27.47
2019-06-20T08:24:44.473Z,27.80
2019-06-20T08:27:47.317Z,27.75
2019-06-20T08:30:52.694Z,27.66
2019-06-20T08:34:04.593Z,27.85
2019-06-20T08:36:40.999Z,27.81
2019-06-20T08:39:13.732Z,28.01
2019-06-20T08:41:48.474Z,28.07
2019-06-20T08:44:18.964Z,28.18
2019-06-20T08:50:15.268Z,28.13
2019-06-20T08:53:01.874Z,28.14
2019-06-20T08:56:38.245Z,28.08
2019-06-20T09:03:06.790Z,28.24
2019-06-20T09:06:13.531Z,28.50
2019-06-20T09:09:02.469Z,28.66
2019-06-20T09:12:06.152Z,28.60
2019-06-20T09:14:56.960Z,28.61
2019-06-20T09:17:45.502Z,28.70
2019-06-20T09:21:03.142Z,28.84
2019-06-20T09:25:03.248Z,29.08
2019-06-20T09:27:43.984Z,29.36
2019-06-20T09:30:57.012Z,29.54
2019-06-20T09:33:48.110Z,29.89
2019-06-20T09:37:40.283Z,29.82
2019-06-20T09:40:21.528Z,29.79
2019-06-20T09:43:32.267Z,29.70
2019-06-20T09:47:27.444Z,29.55
2019-06-20T09:49:33.686Z,29.80
2019-06-20T09:52:05.928Z,29.92
2019-06-20T09:54:36.627Z,30.03
2019-06-20T09:57:10.260Z,30.25
2019-06-20T10:23:14.321Z,30.84
2019-06-20T10:29:09.994Z,30.50
2019-06-20T10:31:47.386Z,30.36
2019-06-20T10:34:37.353Z,30.62
2019-06-20T10:37:14.262Z,31.22
2019-06-20T10:39:46.067Z,31.44
2019-06-20T10:42:53.750Z,31.61
2019-06-20T10:46:03.348Z,31.59
2019-06-20T10:52:00.621Z,31.58
2019-06-20T10:54:49.769Z,31.54
2019-06-20T10:57:23.725Z,31.69
2019-06-20T11:00:29.752Z,31.63
2019-06-20T11:02:49.574Z,31.62
2019-06-20T11:05:20.558Z,31.54
2019-06-20T11:07:53.838Z,31.74
2019-06-20T11:10:30.498Z,32.10
2019-06-20T11:13:11.304Z,32.14
2019-06-20T11:19:48.074Z,31.62
2019-06-20T11:22:20.238Z,31.62
2019-06-20T11:24:58.649Z,31.64
2019-06-20T11:28:02.623Z,31.71
2019-06-20T11:31:00.684Z,31.60
2019-06-20T11:33:49.315Z,31.55
2019-06-20T11:36:48.393Z,31.38
2019-06-20T11:39:47.697Z,31.16
2019-06-20T11:43:00.705Z,31.08
2019-06-20T11:45:47.981Z,31.10
2019-06-20T11:48:27.066Z,31.40
2019-06-20T11:51:11.353Z,31.67
2019-06-20T11:54:00.494Z,31.71
2019-06-20T11:56:55.826Z,31.82
2019-06-20T11:59:51.945Z,31.98
2019-06-20T12:02:50.286Z,31.93
2019-06-20T12:05:23.769Z,31.72
2019-06-20T12:08:03.533Z,31.89
2019-06-20T12:10:34.717Z,32.12
2019-06-20T12:13:09.386Z,31.82
2019-06-20T12:16:39.104Z,31.62
2019-06-20T12:19:46.733Z,31.60
2019-06-20T12:22:20.457Z,31.69
2019-06-20T12:24:51.197Z,31.62
2019-06-20T12:27:33.105Z,31.51
2019-06-20T12:30:14.275Z,32.03
2019-06-20T12:32:46.752Z,32.58
2019-06-20T12:35:50.869Z,32.69
2019-06-20T12:49:41.795Z,31.04
2019-06-20T12:52:54.119Z,30.82
2019-06-20T12:56:08.218Z,30.78
2019-06-20T12:58:57.915Z,30.77
2019-06-20T13:02:08.790Z,31.11
2019-06-20T13:05:54.117Z,31.52
2019-06-20T13:09:17.181Z,31.52
2019-06-20T13:16:04.717Z,31.82
2019-06-20T13:19:14.093Z,32.12
2019-06-20T13:22:49.311Z,32.50
2019-06-20T13:24:51.370Z,32.45
2019-06-20T13:28:13.249Z,32.47
2019-06-20T13:34:56.951Z,32.16
2019-06-20T13:38:08.759Z,32.42
2019-06-20T13:41:07.115Z,32.53
2019-06-20T13:44:19.551Z,32.20
2019-06-20T13:47:31.670Z,32.19
2019-06-20T13:50:35.668Z,32.14
2019-06-20T13:53:29.792Z,32.21
2019-06-20T13:57:15.091Z,32.03
2019-06-20T14:00:19.207Z,31.84
2019-06-20T14:03:28.623Z,31.78
2019-06-20T14:06:30.858Z,31.85
2019-06-20T14:09:35.232Z,32.07
2019-06-20T14:12:33.788Z,32.08
2019-06-20T14:16:12.718Z,32.16
2019-06-20T14:19:26.068Z,32.11
2019-06-20T14:23:00.794Z,32.24
2019-06-20T14:26:17.084Z,32.19
2019-06-20T14:33:59.493Z,31.95
2019-06-20T14:40:25.733Z,31.21
2019-06-20T14:43:17.491Z,31.25
2019-06-20T14:46:07.900Z,31.49
2019-06-20T14:49:27.916Z,32.12
2019-06-20T14:54:31.618Z,32.62
2019-06-20T14:55:59.198Z,32.97
2019-06-20T15:03:12.438Z,32.79
2019-06-20T15:11:55.128Z,32.35
2019-06-20T15:13:44.427Z,31.64
2019-06-20T15:16:57.186Z,31.21
2019-06-20T15:19:29.249Z,31.06
2019-06-20T15:22:00.464Z,31.07
2019-06-20T15:25:12.478Z,31.11
2019-06-20T15:27:55.308Z,31.38
2019-06-20T15:31:13.010Z,31.43
2019-06-20T15:34:02.272Z,31.43
2019-06-20T15:37:22.870Z,31.49
2019-06-20T15:40:41.866Z,31.52
2019-06-20T15:44:09.907Z,31.59
2019-06-20T15:47:30.418Z,31.68
2019-06-20T15:51:26.002Z,31.95
2019-06-20T15:54:57.683Z,32.17
2019-06-20T15:56:58.211Z,32.21
2019-06-20T16:00:20.675Z,32.02
2019-06-20T16:03:09.836Z,32.07
2019-06-20T16:09:20.988Z,31.91
2019-06-20T16:12:02.551Z,31.80
2019-06-20T16:14:55.405Z,31.88
2019-06-20T16:17:39.165Z,32.07
2019-06-20T16:20:18.075Z,31.98
2019-06-20T16:22:57.048Z,31.88
2019-06-20T16:25:57.889Z,31.72
2019-06-20T16:29:15.256Z,31.42
2019-06-20T16:31:57.383Z,31.14
2019-06-20T16:34:39.237Z,30.93
2019-06-20T16:37:18.007Z,30.68
2019-06-20T16:40:14.708Z,30.52
2019-06-20T16:43:11.765Z,30.38
2019-06-20T16:49:43.799Z,30.33
2019-06-20T16:52:36.765Z,30.36
2019-06-20T16:55:32.036Z,30.34
2019-06-20T17:02:07.556Z,30.31
2019-06-20T17:04:31.214Z,30.27
2019-06-20T17:07:38.671Z,30.30
2019-06-20T17:10:26.305Z,30.24
2019-06-20T17:14:09.888Z,30.29
2019-06-20T17:17:13.326Z,30.37
2019-06-20T17:20:07.059Z,30.45
2019-06-20T17:22:59.361Z,30.51
2019-06-20T17:25:38.669Z,30.58
2019-06-20T17:28:42.170Z,30.60
2019-06-20T17:31:49.900Z,30.61
2019-06-20T17:34:31.878Z,30.43
2019-06-20T17:37:18.990Z,30.21
2019-06-20T17:40:41.691Z,29.97
2019-06-20T17:43:23.743Z,29.75
2019-06-20T17:49:20.666Z,29.33
2019-06-20T17:51:52.344Z,29.21
2019-06-20T17:54:35.690Z,29.21
2019-06-20T17:57:13.447Z,29.27
2019-06-20T17:59:46.289Z,29.17
2019-06-20T18:02:19.583Z,29.08
2019-06-20T18:04:50.512Z,28.93
2019-06-20T18:07:29.333Z,28.76
2019-06-20T18:10:11.962Z,28.65
2019-06-20T18:13:14.606Z,28.53
2019-06-20T18:15:53.423Z,28.43
2019-06-20T18:18:52.872Z,28.36
2019-06-20T18:23:23.819Z,28.27
2019-06-20T18:25:39.330Z,28.24
2019-06-20T18:28:19.939Z,28.27
2019-06-20T18:31:08.287Z,28.30
2019-06-20T18:34:29.123Z,28.37
2019-06-20T18:37:27.688Z,28.42
2019-06-20T18:39:45.234Z,28.35
2019-06-20T18:42:47.642Z,28.23
2019-06-20T18:45:31.380Z,27.92
2019-06-20T18:48:04.444Z,27.52
2019-06-20T18:50:52.155Z,27.27
2019-06-20T18:53:38.911Z,27.02
2019-06-20T18:56:46.352Z,26.81
2019-06-20T18:59:35.294Z,26.70
2019-06-20T19:02:28.246Z,26.75
2019-06-20T19:05:15.406Z,26.80
2019-06-20T19:07:51.202Z,26.84
2019-06-20T19:10:51.685Z,26.91
2019-06-20T19:13:48.104Z,26.88
2019-06-20T19:16:20.931Z,26.83
2019-06-20T19:18:51.542Z,26.88
2019-06-20T19:21:50.888Z,26.87
2019-06-20T19:24:29.885Z,26.89
2019-06-20T19:27:09.934Z,26.91
2019-06-20T19:29:49.789Z,26.90
2019-06-20T19:32:24.744Z,26.86
2019-06-20T19:35:10.716Z,26.80
2019-06-20T19:37:46.282Z,26.73
2019-06-20T19:40:28.251Z,26.64
2019-06-20T19:43:06.853Z,26.61
2019-06-20T19:45:46.718Z,26.54
2019-06-20T19:48:18.292Z,26.47
2019-06-20T19:50:51.934Z,26.55
2019-06-20T19:53:22.567Z,26.61
2019-06-20T19:55:56.048Z,26.65
2019-06-20T19:58:28.063Z,26.71
2019-06-20T20:01:01.016Z,26.75
2019-06-20T20:03:33.523Z,26.85
2019-06-20T20:06:13.288Z,26.93
2019-06-20T20:08:49.763Z,27.01
2019-06-20T20:11:28.420Z,26.95
2019-06-20T20:13:59.580Z,26.93
2019-06-20T20:16:30.151Z,26.75
2019-06-20T20:19:06.264Z,26.69
2019-06-20T20:21:38.712Z,26.49
2019-06-20T20:24:33.766Z,26.36
2019-06-20T20:27:09.515Z,26.24
2019-06-20T20:29:56.291Z,26.23
2019-06-20T20:33:02.854Z,26.20
2019-06-20T20:35:51.102Z,26.06
2019-06-20T20:38:49.384Z,25.90
2019-06-20T20:41:47.177Z,25.72
2019-06-20T20:44:25.447Z,25.56
2019-06-20T20:47:15.106Z,25.44
2019-06-20T20:50:03.085Z,25.23
2019-06-20T20:52:38.649Z,25.06
2019-06-20T20:55:10.653Z,25.03
2019-06-20T20:57:43.571Z,25.00
2019-06-20T21:00:27.957Z,24.94
2019-06-20T21:02:59.641Z,24.87
2019-06-20T21:05:50.995Z,24.84
2019-06-20T21:08:20.275Z,24.81
2019-06-20T21:10:57.426Z,24.73
2019-06-20T21:13:36.215Z,24.65
2019-06-20T21:16:15.275Z,24.54
2019-06-20T21:18:46.083Z,24.41
2019-06-20T21:21:16.520Z,24.32
2019-06-20T21:24:04.093Z,24.21
2019-06-20T21:27:05.161Z,24.07
2019-06-20T21:30:08.593Z,23.76
2019-06-20T21:33:08.596Z,23.48
2019-06-20T21:36:10.295Z,23.27
2019-06-20T21:39:14.425Z,23.11
2019-06-20T21:41:54.551Z,23.10
2019-06-20T21:44:26.963Z,23.08
2019-06-20T21:47:10.381Z,23.04
2019-06-20T21:49:44.676Z,22.96
2019-06-20T21:52:21.660Z,22.83
2019-06-20T21:55:21.460Z,22.70
2019-06-20T21:57:52.173Z,22.59
2019-06-20T22:00:30.705Z,22.55
2019-06-20T22:03:02.576Z,22.49
2019-06-20T22:05:33.189Z,22.56
2019-06-20T22:08:19.752Z,22.65
2019-06-20T22:10:51.054Z,22.67
2019-06-20T22:13:24.799Z,22.67
2019-06-20T22:15:56.802Z,22.69
2019-06-20T22:18:28.889Z,22.72
2019-06-20T22:21:02.292Z,22.72
2019-06-20T22:23:32.677Z,22.76
2019-06-20T22:26:03.040Z,22.76
2019-06-20T22:28:33.808Z,22.72
2019-06-20T22:31:05.465Z,22.74
2019-06-20T22:33:43.143Z,22.81
2019-06-20T22:36:15.121Z,22.79
2019-06-20T22:38:48.340Z,22.72
2019-06-20T22:41:22.999Z,22.68
2019-06-20T22:43:53.319Z,22.61
2019-06-20T22:46:23.657Z,22.63
2019-06-20T22:48:56.072Z,22.73
2019-06-20T22:51:43.847Z,22.77
2019-06-20T22:54:16.002Z,22.75
2019-06-20T22:56:47.911Z,22.78
2019-06-20T22:59:18.450Z,22.81
2019-06-20T23:01:48.975Z,22.84
2019-06-20T23:04:21.428Z,22.88
2019-06-20T23:06:56.742Z,22.89
2019-06-20T23:09:27.386Z,22.90
2019-06-20T23:11:57.988Z,22.84
2019-06-20T23:14:31.377Z,22.81
2019-06-20T23:17:01.721Z,22.80
2019-06-20T23:19:32.013Z,22.76
2019-06-20T23:22:02.599Z,22.78
2019-06-20T23:24:35.407Z,22.79
2019-06-20T23:27:07.116Z,22.76
2019-06-20T23:29:38.824Z,22.72
2019-06-20T23:32:09.384Z,22.70
2019-06-20T23:34:39.778Z,22.72
2019-06-20T23:37:12.978Z,22.73
2019-06-20T23:39:42.441Z,22.67
2019-06-20T23:42:14.101Z,22.59
2019-06-20T23:44:47.194Z,22.61
2019-06-20T23:47:20.310Z,22.62
2019-06-20T23:49:52.975Z,22.61
2019-06-20T23:52:31.711Z,22.62
2019-06-20T23:55:08.187Z,22.62
2019-06-20T23:57:44.802Z,22.60
